Bridge of Earn, United Kingdom
Current Conditions -  °F | °C
As of 10:50 AM on Friday 19 Dec 2014 (Local Time) from EGPN Reporting Station
Few Clouds Few Clouds  
Wind Chill: 31°   Ceiling: Unl
Heat Index: 41°   Visibility: 6mi
Dew Point: 36°   Wind: 24mph
Humidity: 81%   Direction: 250°WSW
Pressure: 29.53"   Gusts: NA
Location:  56.35°N, 3.41°W
Report Text: EGPN 191050Z 25021KT 9999 FEW032 05/02 Q1000
Loading
Personal Weather Stations






























Interactive Weather Map New forecast layout! Learn more

10-Day Weather Forecast

Advertisements
Track Severe Weather on mobile